Weather observations for the past three days for
Viroqua Municipal Airport
Imperial (Metric)
Date Time (cdt) Wind (mph) Vis. (mi.) Weather Sky Cond. Temperature (ºF) Relative Humidity Wind Chill (°F) Heat Index (°F) Pressure Precipitation (in)
Air Dwpt 6 hour altimeter (in) sea level (mb) 1 hr 3 hr 6 hr
Max. Min.
09 15:15 NW 21 G 28 10.00 Fair and Breezy CLR 60.3 29.3 31% 29.74 0.0
09 14:55 NW 22 G 31 10.00 Fair and Breezy CLR 60.8 30.6 32% 29.73 0.0
09 14:35 NW 15 G 29 10.00 Partly Cloudy SCT060 60.4 32.2 35% 29.72 0.0
09 14:15 NW 20 G 26 10.00 Partly Cloudy SCT060 61.2 33.8 36% 29.71 0.0
09 13:55 NW 15 G 23 10.00 Mostly Cloudy BKN050 60.6 33.6 36% 29.71 0.0
09 13:35 NW 16 G 30 10.00 Mostly Cloudy BKN050 59.7 34.9 39% 29.71 0.0
09 13:15 NW 18 G 22 10.00 Mostly Cloudy BKN050 59.9 36.1 41% 29.71 0.0
09 12:55 NW 20 G 25 10.00 Mostly Cloudy BKN048 BKN055 58.1 36.5 59.2 48.7 45% 29.71 0.0
09 12:35 NW 20 G 26 10.00 Mostly Cloudy BKN048 BKN050 59.2 37 44% 29.71 0.0
09 12:15 NW 20 G 26 10.00 Mostly Cloudy BKN046 BKN050 57.9 36.5 45% 29.7 0.0
09 11:55 NW 22 G 28 10.00 Mostly Cloudy and Breezy SCT042 BKN048 BKN050 58.6 37.9 46% 29.69 0.0
09 11:35 NW 20 G 26 10.00 Mostly Cloudy BKN044 BKN050 58.8 39.7 49% 29.69 0.0
09 11:15 NW 18 G 23 10.00 Partly Cloudy SCT046 59.2 39.4 48% 29.67 0.0
09 10:55 NW 22 G 25 10.00 Partly Cloudy and Breezy SCT036 SCT046 58.5 39 49% 29.67 0.0
09 10:35 NW 14 G 23 10.00 Partly Cloudy SCT036 58.3 37.9 47% 29.66 0.0
09 10:15 W 13 G 17 10.00 Partly Cloudy SCT055 SCT100 57.7 32.9 39% 29.65 0.0
09 09:55 W 12 10.00 Mostly Cloudy BKN060 BKN065 BKN095 56.7 34.3 43% 29.65 0.0
09 09:35 SW 8 10.00 Overcast BKN060 BKN080 OVC090 54.1 34.5 48% 29.65 0.0
09 09:15 SW 9 10.00 Overcast SCT035 SCT049 OVC090 52.9 32.2 45% 29.65 0.0
09 08:55 W 3 10.00 Overcast SCT033 BKN065 OVC070 52.7 33.1 47% 29.66 0.0
09 08:35 W 3 10.00 Mostly Cloudy SCT065 BKN075 53.1 32.2 45% 29.64 0.0
09 08:15 W 10 10.00 Partly Cloudy SCT075 52.3 32.7 47% 29.67 0.0
09 07:55 W 8 10.00 Partly Cloudy SCT090 51.6 34.2 51% 29.66 0.0
09 07:35 NW 7 10.00 Partly Cloudy SCT090 49.5 35.1 58% 47 29.64 0.0
09 07:15 SW 6 10.00 Fair CLR 49.5 32 51% 48 29.61 0.0
09 06:55 SW 6 10.00 Fair CLR 48.2 31.5 56.7 46.9 52% 46 29.6 0.0
09 06:35 SW 6 10.00 Fair CLR 48.2 29.3 48% 46 29.59 0.0
09 06:15 SW 6 10.00 Fair CLR 48 29.7 49% 46 29.59 0.0
09 05:55 SW 5 10.00 Fair CLR 49.8 28.2 43% 49 29.59 0.0
09 05:35 SW 5 10.00 Fair CLR 48.4 28.9 47% 47 29.6 0.0
09 05:15 Calm 10.00 Fair CLR 49.1 28.4 45% 29.59 0.0
09 04:55 W 3 10.00 Fair CLR 49.6 28.6 44% 29.6 0.0
09 04:35 W 6 10.00 Fair CLR 50.5 28.8 43% 29.6 0.0
09 04:15 W 6 10.00 Fair CLR 50.5 29.3 44% 29.6 0.0
09 03:55 W 5 10.00 Fair CLR 50 30 46% 49 29.6 0.0
09 03:35 NW 6 10.00 Fair CLR 50 30.9 48% 48 29.6 0.0
09 03:15 NW 6 10.00 Fair CLR 50.9 31.3 47% 29.59 0.0
09 02:55 NW 5 10.00 Fair CLR 52.2 31.1 45% 29.59 0.0
09 02:35 NW 6 10.00 Fair CLR 53.1 31.3 44% 29.59 0.0
09 02:15 W 8 10.00 Fair CLR 53.8 31.8 43% 29.6 0.0
09 01:55 W 8 10.00 Fair CLR 54.3 32 43% 29.6 0.0
09 01:35 W 9 10.00 Partly Cloudy SCT100 55 32 42% 29.59 0.0
09 01:15 W 10 10.00 Mostly Cloudy BKN100 56.7 31.6 39% 29.59 0.0
09 00:55 W 9 10.00 Mostly Cloudy BKN100 56.3 32 68.4 55.9 40% 29.59 0.0
09 00:35 W 9 10.00 Mostly Cloudy BKN110 56.3 32 40% 29.59 0.0
09 00:20 W 9 10.00 Overcast OVC110 56.3 31.8 40% 29.59 0.0
08 23:55 W 8 10.00 Mostly Cloudy BKN110 56.3 30.2 37% 29.59 0.0
08 23:35 SW 7 10.00 Partly Cloudy SCT110 57.2 29.3 35% 29.59 0.0
08 23:15 SW 6 10.00 Partly Cloudy SCT100 57 29.7 35% 29.59 0.0
08 22:55 SW 8 10.00 Mostly Cloudy BKN110 58.5 28.2 32% 29.59 0.0
08 22:35 SW 6 10.00 Overcast OVC110 59.2 27.5 30% 29.6 0.0
08 22:15 S 6 10.00 Overcast OVC110 60.6 26.8 28% 29.6 0.0
08 21:55 S 7 10.00 Overcast SCT100 OVC120 59.9 27.1 29% 29.61 0.0
08 21:35 SW 6 10.00 Overcast BKN100 OVC120 60.4 28.4 30% 29.61 0.0
08 21:15 S 5 10.00 Mostly Cloudy BKN110 61.7 25.7 25% 29.61 0.0
08 20:55 S 5 10.00 Mostly Cloudy BKN110 61.7 25.5 25% 29.61 0.0
08 20:35 SW 3 10.00 Partly Cloudy SCT110 62.1 25.2 24% 29.6 0.0
08 20:15 SW 6 10.00 Fair CLR 63 26.4 25% 29.6 0.0
08 19:55 W 7 10.00 Fair CLR 64 26.1 24% 29.61 0.0
08 19:35 W 9 10.00 Partly Cloudy SCT110 66.2 25.3 21% 29.6 0.0
08 19:15 W 7 10.00 Partly Cloudy SCT110 68 25 20% 29.61 0.0
08 18:55 W 9 10.00 Partly Cloudy SCT110 68 24.6 69.8 64.6 19% 29.61 0.0
08 18:35 W 9 10.00 Partly Cloudy SCT110 67.1 23.7 19% 29.62 0.0
08 18:15 W 10 10.00 Partly Cloudy SCT110 67.6 23.2 18% 29.62 0.0
08 17:55 SW 10 G 16 10.00 Fair CLR 67.5 22.3 18% 29.63 0.0
08 17:35 W 13 G 17 10.00 Partly Cloudy SCT110 68.9 22.5 17% 29.63 0.0
08 17:15 SW 10 G 21 10.00 Partly Cloudy SCT100 69.4 21 16% 29.63 0.0
08 16:55 W 15 G 21 3.00 Partly Cloudy SCT100 69.3 22.3 17% 29.64 0.0
08 16:35 SW 14 G 23 7.00 Fair CLR 69.4 21 16% 29.65 0.0
08 16:15 W 21 5.00 Fair and Breezy CLR 69.3 21.7 16% 29.66 0.0
08 15:55 W 10 G 18 10.00 Partly Cloudy SCT095 69.1 21.2 16% 29.66 0.0
08 15:35 SW 16 G 23 10.00 Partly Cloudy SCT095 68.7 20.5 16% 29.68 0.0
08 15:15 SW 15 G 24 10.00 Partly Cloudy SCT095 68 20.7 16% 29.69 0.0
08 14:55 W 13 G 21 10.00 Partly Cloudy SCT095 67.1 21 17% 29.7 0.0
08 14:35 W 8 G 18 10.00 Mostly Cloudy BKN095 66.6 22.3 18% 29.71 0.0
08 14:15 W 9 G 20 10.00 Partly Cloudy SCT095 65.8 21 18% 29.71 0.0
08 14:00 SW 16 10.00 Partly Cloudy SCT095 66 20.1 17% 29.72 0.0
08 13:35 W 16 G 24 10.00 Partly Cloudy SCT090 66.6 24.3 20% 29.73 0.0
08 13:15 SW 9 10.00 Partly Cloudy SCT090 64.9 20.3 18% 29.74 0.0
08 12:55 SW 12 G 18 10.00 Fair CLR 64.4 23.2 64.6 42.8 21% 29.75 0.0
08 12:35 SW 8 G 18 10.00 Fair CLR 64.6 22.8 20% 29.76 0.0
08 12:15 SW 10 G 18 10.00 Fair CLR 63.3 25 23% 29.77 0.0
08 11:55 W 14 G 18 10.00 Fair CLR 62.8 24.6 23% 29.78 0.0
08 11:35 SW 9 10.00 Fair CLR 60.8 24.4 25% 29.78 0.0
08 11:15 SW 13 G 17 10.00 Fair CLR 61.2 23.9 24% 29.79 0.0
08 10:55 SW 10 10.00 Fair CLR 60.4 24.3 25% 29.8 0.0
08 10:35 SW 15 G 18 10.00 Fair CLR 59.9 23.9 25% 29.81 0.0
08 10:15 SW 14 10.00 Fair CLR 58.8 23.2 25% 29.81 0.0
08 10:00 SW 13 G 16 10.00 Fair CLR 58.1 24.3 27% 29.81 0.0
08 09:35 S 13 10.00 Fair CLR 56.3 24.1 29% 29.81 0.0
08 09:15 SW 15 10.00 Fair CLR 54.9 23.4 29% 29.81 0.0
08 08:55 S 12 10.00 Fair CLR 53.2 23.4 31% 29.81 0.0
08 08:35 SW 7 10.00 Fair CLR 52 24.8 35% 29.81 0.0
08 08:15 S 7 10.00 Fair CLR 50 24.1 36% 48 29.82 0.0
08 07:55 S 10 10.00 Fair CLR 48.2 23.2 37% 44 29.82 0.0
08 07:35 S 8 10.00 Fair CLR 46.2 23.2 40% 43 29.81 0.0
08 07:15 S 7 10.00 Fair CLR 44.1 22.8 43% 41 29.81 0.0
08 06:55 S 7 10.00 Fair CLR 42.8 22.1 44.6 41.2 44% 39 29.81 0.0
08 06:35 S 9 10.00 Fair CLR 42.6 21.7 43% 38 29.81 0.0
08 06:15 S 7 10.00 Fair CLR 41.5 21.4 45% 38 29.81 0.0
08 05:55 S 5 10.00 Fair CLR 41.4 20.8 44% 39 29.81 0.0
08 05:35 S 6 10.00 Fair CLR 41.9 20.7 43% 39 29.81 0.0
08 05:15 S 6 10.00 Fair CLR 41.4 21 44% 38 29.81 0.0
08 04:55 S 7 10.00 Fair CLR 41.4 21.2 45% 37 29.81 0.0
08 04:35 S 8 10.00 Fair CLR 41.7 21 44% 37 29.82 0.0
08 04:15 S 6 10.00 Fair CLR 41.9 20.8 43% 39 29.82 0.0
08 03:55 S 9 10.00 Fair CLR 42.6 20.1 41% 38 29.83 0.0
08 03:35 S 6 10.00 Fair CLR 42.1 19.9 41% 39 29.83 0.0
08 03:15 S 8 10.00 Fair CLR 42.3 20.1 41% 38 29.83 0.0
08 02:55 S 7 10.00 Fair CLR 42.1 20.3 42% 38 29.83 0.0
08 02:35 S 7 10.00 Fair CLR 41.5 20.1 42% 38 29.83 0.0
08 02:15 S 6 10.00 Fair CLR 41.7 20.1 42% 38 29.83 0.0
08 01:55 S 6 10.00 Fair CLR 42.1 19.6 41% 39 29.84 0.0
08 01:35 S 7 10.00 Fair CLR 41.9 19.4 40% 38 29.85 0.0
08 01:15 S 6 10.00 Fair CLR 42.8 18.9 38% 40 29.85 0.0
08 00:55 SE 7 10.00 Fair CLR 43.5 16.9 54.5 43.3 34% 40 29.86 0.0
08 00:35 SE 7 10.00 Fair CLR 44.1 16.9 33% 41 29.86 0.0
08 00:15 SE 6 10.00 Fair CLR 44.1 17.6 35% 41 29.86 0.0
07 23:55 SE 6 10.00 Fair CLR 43.7 16.9 34% 41 29.86 0.0
07 23:35 E 5 10.00 Fair CLR 45 16.7 32% 43 29.86 0.0
07 23:15 E 3 10.00 Fair CLR 45.1 16.7 32% 29.86 0.0
07 22:55 Calm 10.00 Fair CLR 45.7 16 30% 29.86 0.0
07 22:35 NE 3 10.00 Fair CLR 45.5 17.2 32% 29.86 0.0
07 22:15 NE 3 10.00 Fair CLR 46.4 17.2 31% 29.86 0.0
07 21:55 NE 3 10.00 Fair CLR 46 18.3 33% 29.86 0.0
07 21:35 Calm 10.00 Fair CLR 45.5 19.6 36% 29.85 0.0
07 21:15 N 6 10.00 Fair CLR 45.5 19.9 36% 43 29.85 0.0
07 20:55 N 6 10.00 Fair CLR 47.8 19.4 32% 46 29.84 0.0
07 20:35 N 5 10.00 Fair CLR 48.7 18.5 30% 47 29.83 0.0
07 20:15 N 6 10.00 Fair CLR 48.9 21 33% 47 29.83 0.0
07 19:55 N 6 10.00 Fair CLR 50.9 19.9 29% 29.83 0.0
07 19:35 N 7 10.00 Fair CLR 52.5 20.3 28% 29.82 0.0
07 19:15 NW 8 10.00 Fair CLR 53.4 20.1 27% 29.82 0.0
07 18:55 NW 9 10.00 Fair CLR 54.5 21.6 57.2 52 28% 29.81 0.0
07 18:35 NW 9 10.00 Fair CLR 55 20.1 25% 29.81 0.0
07 18:15 NW 12 10.00 Fair CLR 55.8 18.3 23% 29.81 0.0
07 17:55 NW 15 10.00 Fair CLR 55.9 19.2 24% 29.81 0.0
07 17:35 W 12 G 20 10.00 Fair CLR 56.3 19.6 24% 29.82 0.0
07 17:15 W 9 G 25 10.00 Fair CLR 56.3 19.2 23% 29.82 0.0
07 16:55 NW 15 G 20 10.00 Fair CLR 56.5 20.3 24% 29.81 0.0
07 16:35 NW 9 G 21 10.00 Fair CLR 56.7 21 25% 29.81 0.0
07 16:15 NW 13 G 23 10.00 Partly Cloudy SCT075 56.8 22.6 27% 29.81 0.0
07 15:55 W 10 G 20 10.00 Fair CLR 56.5 22.8 27% 29.82 0.0
07 15:35 NW 10 G 23 10.00 Fair CLR 56.7 23.5 28% 29.82 0.0
07 15:15 NW 12 G 20 10.00 Partly Cloudy SCT065 54.7 23.4 30% 29.83 0.0
07 15:00 NW 14 G 22 10.00 Partly Cloudy SCT065 54.1 25 32% 29.83 0.0
07 14:35 NW 13 G 20 10.00 Mostly Cloudy BKN065 53.8 25 33% 29.84 0.0
07 14:15 NW 14 G 21 10.00 Mostly Cloudy BKN065 54.1 27.3 36% 29.84 0.0
07 14:00 NW 13 G 20 10.00 Partly Cloudy SCT065 SCT075 55 26.8 34% 29.84 0.0
07 13:35 NW 10 10.00 Partly Cloudy SCT055 52.5 27.1 38% 29.84 0.0
07 13:15 NW 7 10.00 Partly Cloudy SCT055 52.3 27.5 38% 29.85 0.0
07 12:55 NW 9 10.00 Partly Cloudy SCT055 52.3 27.9 52.3 36.5 39% 29.86 0.0
07 12:35 Calm 10.00 Fair CLR 50.7 26.1 38% 29.86 0.0
07 12:15 NW 7 10.00 Partly Cloudy SCT080 50.2 26.6 40% 29.87 0.0
07 11:55 NE 3 10.00 Partly Cloudy SCT080 49.1 26.8 42% 29.88 0.0
07 11:35 SE 3 10.00 Partly Cloudy SCT085 49.8 27.1 41% 29.88 0.0
07 11:15 N 9 10.00 Partly Cloudy SCT085 48.6 27.7 44% 45 29.88 0.0
07 10:55 NE 6 10.00 Partly Cloudy SCT060 48 25.9 42% 46 29.88 0.0
07 10:35 N 7 10.00 Partly Cloudy SCT060 47.7 26.8 44% 45 29.89 0.0
07 10:15 Calm 10.00 Fair CLR 48.7 25.3 40% 29.89 0.0
07 09:55 Calm 10.00 Partly Cloudy SCT060 SCT070 47.7 23.9 39% 29.9 0.0
07 09:35 Calm 10.00 Partly Cloudy SCT070 47.3 24.6 41% 29.91 0.0
07 09:15 Calm 10.00 Partly Cloudy SCT050 SCT060 46 25.9 45% 29.91 0.0
07 08:55 Calm 10.00 Mostly Cloudy SCT042 SCT050 BKN060 43.7 26.1 50% 29.91 0.0
07 08:35 Calm 10.00 Mostly Cloudy SCT060 BKN080 42.8 27.1 54% 29.92 0.0
07 08:15 SE 3 10.00 Partly Cloudy SCT048 SCT060 SCT065 40.6 27.1 59% 29.92 0.0
07 07:55 SW 3 10.00 Overcast BKN050 OVC060 39.4 26.8 61% 29.93 0.0
07 07:35 Calm 10.00 Mostly Cloudy SCT060 BKN070 38.7 27.3 64% 29.92 0.0
07 07:15 Calm 10.00 Mostly Cloudy BKN070 BKN080 37.2 27 66% 29.92 0.0
07 06:55 Calm 10.00 Mostly Cloudy BKN070 BKN080 36.3 27.5 36.5 32 70% 29.92 0.0
07 06:35 S 3 10.00 Overcast BKN065 OVC080 36.1 27.5 71% 29.92 0.0
07 06:15 S 8 10.00 Overcast OVC065 35.8 27.9 73% 30 29.92 0.0
07 05:55 S 8 10.00 Overcast OVC070 36.1 27.7 71% 30 29.92 0.0
07 05:35 S 9 10.00 Mostly Cloudy BKN070 BKN120 35.6 26.8 70% 29 29.92 0.0
07 05:15 S 7 10.00 Mostly Cloudy SCT070 SCT090 BKN110 35.6 25.7 67% 31 29.92 0.0
07 04:55 S 9 10.00 Partly Cloudy SCT045 SCT055 SCT070 35.8 25.5 66% 29 29.93 0.0
07 04:35 S 6 10.00 Partly Cloudy SCT047 SCT055 SCT065 35.1 24.8 66% 31 29.93 0.0
07 04:15 S 6 10.00 Mostly Cloudy SCT055 SCT070 BKN080 34.7 24.8 67% 30 29.94 0.0
07 03:55 S 6 10.00 Mostly Cloudy SCT060 BKN080 BKN110 34.9 24.8 67% 30 29.94 0.0
07 03:35 S 5 10.00 Overcast SCT060 BKN080 OVC100 35.2 24.6 65% 32 29.95 0.0
07 03:15 S 6 10.00 Overcast SCT048 BKN080 OVC100 35.1 23.9 64% 31 29.95 0.0
07 02:55 S 5 10.00 Overcast SCT050 SCT060 OVC080 34.9 24.1 65% 31 29.95 0.0
07 02:35 S 6 10.00 Overcast OVC080 34.3 24.1 66% 30 29.95 0.0
07 02:15 S 6 10.00 Mostly Cloudy BKN080 33.4 23.9 68% 29 29.95 0.0
07 01:55 Calm 10.00 Mostly Cloudy BKN080 34 23.5 66% 29.95 0.0
07 01:35 Calm 10.00 Fair CLR 32.4 24.3 72% 29.96 0.0
07 01:15 Calm 10.00 Fair CLR 32 23.9 72% 29.96 0.0
07 00:55 Calm 10.00 Fair CLR 34.2 23.9 42.1 33.4 66% 29.96 0.0
07 00:35 Calm 10.00 Fair CLR 34.2 23.5 65% 29.96 0.0
07 00:15 Calm 10.00 Fair CLR 36 23.5 61% 29.97 0.0
06 23:55 Calm 10.00 Fair CLR 36.7 23 58% 29.97 0.0
06 23:35 Calm 10.00 Fair CLR 36.5 23.5 59% 29.98 0.0
06 23:15 Calm 10.00 Fair CLR 36.7 23 58% 29.99 0.0
06 22:55 Calm 10.00 Fair CLR 37.9 22.6 54% 29.99 0.0
06 22:35 Calm 10.00 Fair CLR 37.4 22.8 56% 29.99 0.0
06 22:15 Calm 10.00 Fair CLR 37.2 23 56% 29.99 0.0
06 21:55 Calm 10.00 Fair CLR 36.7 23 58% 29.99 0.0
06 21:35 Calm 10.00 Fair CLR 36.7 23.2 58% 29.99 0.0
06 21:15 Calm 10.00 Fair CLR 36.3 23.7 60% 29.99 0.0
06 20:55 Calm 10.00 Fair CLR 37.4 23.4 57% 29.98 0.0
06 20:35 NW 3 10.00 Fair CLR 38.1 23.5 56% 29.98 0.0
06 20:15 NW 5 10.00 Partly Cloudy SCT050 39.2 23.7 54% 36 29.98 0.0
06 19:55 NW 8 10.00 Overcast OVC050 41.2 23.4 49% 37 29.98 0.0
06 19:35 NW 10 10.00 Overcast OVC050 41.9 23.4 48% 36 29.98 0.0
06 19:15 NW 12 G 17 10.00 Overcast OVC050 41.9 23 47% 36 29.98 0.0
06 18:55 NW 13 10.00 Overcast OVC050 42.1 22.8 44.4 42.1 46% 36 29.98 0.0
06 18:35 NW 13 10.00 Overcast OVC050 42.3 23.5 48% 36 29.98 0.0
06 18:15 NW 9 10.00 Overcast OVC050 42.6 23.7 47% 38 29.98 0.0
06 17:55 NW 10 G 18 10.00 Overcast OVC050 42.4 23 46% 37 29.98 0.0
06 17:35 NW 15 10.00 Overcast OVC050 42.6 23.4 47% 36 29.98 0.0
06 17:15 W 10 10.00 Overcast OVC050 42.8 23 46% 38 29.98 0.0
06 16:55 NW 13 G 18 10.00 Overcast OVC050 42.8 23.4 46% 37 29.98 0.0
06 16:35 W 12 10.00 Overcast OVC050 43.5 23.4 45% 38 29.98 0.0
06 16:15 W 12 G 16 10.00 Overcast SCT050 OVC055 44.4 23.4 43% 39 29.98 0.0
06 15:55 W 14 G 20 10.00 Overcast BKN050 OVC055 43.9 23.5 45% 38 29.98 0.0
06 15:35 W 15 G 18 10.00 Overcast OVC050 43.7 23.2 44% 37 29.98 0.0
Date Time (cdt) Wind (mph) Vis. (mi.) Weather Sky Cond. Air Dwpt Max. Min. Relative Humidity Wind Chill (°F) Heat Index (°F) altimeter (in) sea level (mb) 1 hr 3 hr 6 hr
6 hour
Temperature (ºF) Pressure Precipitation (in)